»·PEaware :: N261AB KWJF-KTOA

N261AB :: KWJF-KTOA

FLIGHT INFORMATION

Flight Status: Arrived
Operator: Privately registered:
United States
More flights under this callsign
Pilot: Brian K. (18535)
Aircraft: Unknown
(DA62)
More flights by this aircraft type
Origin: KWJF Gen Fox
United States
Destination: KTOA Zamperini
United States
More flights between these airports :: More routes between these airports
Route: PMD V386 V23 LAX V25 ALBAS SLI
File this flight plan on PilotEdge
Remarks:
Altitude:
(Current/Filed)
8,000ft
Speed:
(Current/Filed)
160kts
Departed: 07-Jan-19 09:33 AM
Arrived: 07-Jan-19 10:23 AM
Distance/Time
Traveled:
57nm/0:50
Distance/Time
To Go:
Arrived

Flight Plot

Page will automatically refresh every two minutes.

Flight plan parsing failed; only flown route is shown


Map Options




Map Legend


Flown Route
Filed Route
Departure Airport
Arrival Airport
Navaid (VOR, NDB)
Fix

Horizontal Profiles

Position Reports

Time Latitude Longitude Heading Altitude Ground
Speed
07-Jan-19 09:10 34.739602 -118.213554 250 2355ft 0kts
07-Jan-19 09:11 34.739602 -118.213554 250 2355ft 0kts
07-Jan-19 09:12 34.739602 -118.213554 250 2355ft 0kts
07-Jan-19 09:13 34.739602 -118.213554 250 2355ft 0kts
07-Jan-19 09:14 34.739602 -118.213554 250 2355ft 0kts
07-Jan-19 09:15 34.739602 -118.213554 250 2355ft 0kts
07-Jan-19 09:16 34.739602 -118.213554 250 2355ft 0kts
07-Jan-19 09:17 34.739602 -118.213554 250 2355ft 0kts
07-Jan-19 09:18 34.739602 -118.213554 250 2355ft 0kts
07-Jan-19 09:19 34.739602 -118.213554 250 2355ft 0kts
07-Jan-19 09:20 34.739602 -118.213554 250 2355ft 0kts
07-Jan-19 09:21 34.739602 -118.213554 250 2355ft 0kts
07-Jan-19 09:22 34.739602 -118.213554 250 2355ft 0kts
07-Jan-19 09:23 34.739602 -118.213554 250 2355ft 0kts
07-Jan-19 09:24 34.740201 -118.213574 65 2355ft 6kts
07-Jan-19 09:25 34.741577 -118.213073 72 2355ft 7kts
07-Jan-19 09:26 34.742276 -118.210420 72 2355ft 9kts
07-Jan-19 09:27 34.742820 -118.207477 113 2355ft 8kts
07-Jan-19 09:28 34.742797 -118.207247 79 2355ft 0kts
07-Jan-19 09:29 34.742800 -118.207229 79 2355ft 0kts
07-Jan-19 09:30 34.743307 -118.207055 335 2355ft 0kts
07-Jan-19 09:31 34.743732 -118.208639 251 2355ft 40kts
07-Jan-19 09:32 34.735803 -118.231175 249 3251ft 82kts
07-Jan-19 09:33 34.716247 -118.222778 113 4487ft 119kts
07-Jan-19 09:34 34.705257 -118.182990 102 5697ft 129kts
07-Jan-19 09:35 34.692948 -118.142731 137 6628ft 136kts
07-Jan-19 09:36 34.665889 -118.107782 137 7339ft 147kts
07-Jan-19 09:37 34.637645 -118.070723 135 7974ft 156kts
07-Jan-19 09:38 34.609075 -118.076393 273 7991ft 139kts
07-Jan-19 09:39 34.607024 -118.123138 258 7989ft 141kts
07-Jan-19 09:40 34.595388 -118.168624 252 7988ft 142kts
07-Jan-19 09:41 34.584482 -118.203460 251 7988ft 142kts
07-Jan-19 09:42 34.572733 -118.239352 251 7963ft 143kts
07-Jan-19 09:43 34.558283 -118.282840 251 7960ft 142kts
07-Jan-19 09:44 34.544486 -118.324156 251 7964ft 142kts
07-Jan-19 09:45 34.529780 -118.368069 252 7977ft 144kts
07-Jan-19 09:46 34.514590 -118.413426 252 7989ft 147kts
07-Jan-19 09:47 34.499167 -118.459419 252 7999ft 151kts
07-Jan-19 09:48 34.483323 -118.506595 251 8007ft 154kts
07-Jan-19 09:49 34.467389 -118.553938 251 8014ft 156kts
07-Jan-19 09:50 34.451084 -118.602259 251 8012ft 157kts
07-Jan-19 09:51 34.434967 -118.649994 251 8011ft 158kts
07-Jan-19 09:52 34.401932 -118.661051 159 8017ft 168kts
07-Jan-19 09:53 34.359042 -118.640405 159 8017ft 171kts
07-Jan-19 09:54 34.314691 -118.618737 158 8017ft 174kts
07-Jan-19 09:55 34.272314 -118.597913 157 8017ft 175kts
07-Jan-19 09:56 34.227554 -118.575977 156 7848ft 175kts
07-Jan-19 09:57 34.184667 -118.554952 154 7064ft 164kts
07-Jan-19 09:58 34.143192 -118.534599 154 6282ft 161kts
07-Jan-19 09:59 34.103088 -118.514937 153 6019ft 155kts
07-Jan-19 10:00 34.063951 -118.495771 153 6005ft 154kts
07-Jan-19 10:01 34.024655 -118.476556 153 6009ft 161kts
07-Jan-19 10:02 33.983901 -118.456655 153 6010ft 165kts
07-Jan-19 10:03 33.941456 -118.435954 153 6012ft 167kts
07-Jan-19 10:04 33.905987 -118.402943 131 6012ft 163kts
07-Jan-19 10:05 33.878318 -118.373357 132 6021ft 162kts
07-Jan-19 10:06 33.846548 -118.339530 133 5285ft 159kts
07-Jan-19 10:07 33.812948 -118.309100 151 4388ft 154kts
07-Jan-19 10:08 33.774800 -118.288302 151 3493ft 150kts
07-Jan-19 10:09 33.738077 -118.267959 151 3022ft 138kts
07-Jan-19 10:11 33.706164 -118.250382 151 3023ft 133kts
07-Jan-19 10:12 33.672746 -118.231985 151 3024ft 132kts
07-Jan-19 10:13 33.642150 -118.208274 141 3024ft 130kts
07-Jan-19 10:14 33.622354 -118.177585 60 2775ft 127kts
07-Jan-19 10:15 33.654165 -118.159758 21 2047ft 125kts
07-Jan-19 10:16 33.684372 -118.150050 340 2026ft 117kts
07-Jan-19 10:17 33.700794 -118.184530 309 2025ft 124kts
07-Jan-19 10:18 33.721670 -118.215874 311 2023ft 119kts
07-Jan-19 10:19 33.742211 -118.246683 311 2024ft 118kts
07-Jan-19 10:20 33.762976 -118.277840 312 1502ft 117kts
07-Jan-19 10:21 33.782282 -118.306882 312 811ft 103kts
07-Jan-19 10:22 33.798890 -118.332032 316 215ft 88kts
07-Jan-19 10:23 33.805991 -118.344295 290 107ft 6kts
07-Jan-19 10:24 33.805137 -118.345232 128 107ft 8kts
07-Jan-19 10:25 33.803897 -118.343304 129 107ft 9kts
07-Jan-19 10:26 33.802099 -118.341837 133 107ft 4kts
07-Jan-19 10:27 33.801885 -118.341847 215 107ft 0kts
07-Jan-19 10:28 33.801882 -118.341849 215 107ft 0kts

Navigation Log

Ident Type
Flight plan parsing failed, navigation log unavailable